x

Central Aleutians 230nm Sw Dutch Harbor (46072) Wave Buoy

12:50pm - Sun 21st Sep 2014 All times are UTC.

  • Sig Wave height 4.9ft
  • Peak Period 15s
  • Average Period 7s
  • Wind
    13mph, 16mph gusts
  • Sea Temp 48°f
  • 空気 Temp 51°f
  • Sea Pressure 1009.3mb

More Historic Weather Station data

Upgrade to MSW Pro to gain access to the past 30 days of data for over 8000 Wavebouys and Weather Stations around the globe.

Join Pro

Comparision Forecast

View Surf forecast
   
Sun 09/21 12:50pm 5ft 15s 7s 13 16 mph 1009.3mb 48f 51f
11:50am 5ft 15s 7s 11 13 mph 1009.5mb 49f 51f
10:50am 4ft 15s 6s 13 16 mph 1009.6mb 49f 51f
9:50am 3.5ft 15s 6s 11 13 mph 1009.7mb 50f 51f
8:50am 3.5ft 12s 6s 11 13 mph 1010.1mb 50f 51f
7:50am 3.5ft 8s 5s 11 13 mph 1010.3mb 50f 51f
6:50am 3.5ft 8s 6s 9 11 mph 1010.5mb 50f 51f
5:50am 3.5ft 8s 6s 9 11 mph 1010.4mb 50f 51f
4:50am 3.5ft 8s 6s 9 11 mph 1010.3mb 51f 51f
3:50am 3.5ft 8s 6s 9 11 mph 1010.5mb 50f 51f
2:50am 3.5ft 8s 7s 11 13 mph 1010.6mb 51f 51f
1:50am 2.5ft 8s 5s 9 11 mph 1010.8mb 50f 51f
12:50am 2.5ft 15s 6s 11 13 mph 1011.1mb 50f 51f
Sat 09/20 11:50pm 3ft 15s 6s 9 11 mph 1011.6mb 50f 51f
10:50pm 3ft 9s 7s 9 11 mph 1012.2mb 50f 51f
9:50pm 3.5ft 8s 7s 7 9 mph 1012.8mb 50f 51f
8:50pm 3.5ft 9s 6s 7
mph
1012.7mb 50f 50f
7:50pm 4ft 8s 6s 4 7 mph 1012.6mb 50f 50f
6:50pm 4.5ft 8s 6s 4
mph
1012.8mb 50f 50f
5:50pm 4.5ft 9s 6s 4
mph
1012.7mb 50f 50f
4:50pm 4.5ft 8s 7s 4 9 mph 1012.8mb 50f 49f
3:50pm 5ft 8s 7s 4 7 mph 1012.9mb 50f 49f
2:50pm 4.5ft 9s 7s 4 7 mph 1013.1mb 50f 50f
1:50pm 4.5ft 9s 7s 7 9 mph 1013.6mb 50f 50f
12:50pm 4.5ft 9s 7s 4 7 mph 1013.9mb 50f 49f
11:50am 4.5ft 9s 6s 2 4 mph 1014.1mb 50f 49f
10:50am 5ft 9s 6s 2
mph
1014.2mb 50f 49f
9:50am 5ft 9s 6s 4 7 mph 1014.4mb 50f 48f
8:50am 5.5ft 8s 6s 4
mph
1015mb 50f 48f
7:50am 6ft 8s 6s 4 7 mph 1014.8mb 50f 48f
6:50am 5.5ft 8s 6s 4 7 mph 1014.6mb 50f 48f
5:50am 6ft 8s 7s 7 11 mph 1014.7mb 50f 49f
4:50am 5.5ft 9s 6s 4 7 mph 1014.6mb 50f 48f
3:50am 6ft 9s 7s 7 9 mph 1014.7mb 50f 48f
2:50am 6ft 9s 7s 7
mph
1014.3mb 49f 48f
1:50am 5.5ft 9s 7s 9 11 mph 1014.2mb 47f 48f
12:50am 5.5ft 9s 7s 11
mph
1014.3mb 47f 48f
Fri 09/19 11:50pm 5.5ft 8s 6s 11 13 mph 1014.5mb 47f 48f
10:50pm 6ft 9s 7s 11 13 mph 1014.7mb 47f 48f
9:50pm 6.5ft 10s 6s 9 11 mph 1014.6mb 47f 48f
8:50pm 6.5ft 7s 6s 13 16 mph 1014.3mb 46f 49f
7:50pm 6.5ft 8s 6s 11 13 mph 1014.3mb 47f 49f
6:50pm 7ft 8s 6s 9 11 mph 1014.2mb 49f 49f
5:50pm 8ft 8s 6s 11 13 mph 1013.8mb 49f 49f
4:50pm 8ft 9s 6s 20 25 mph 1012.7mb 49f 49f
3:50pm 8ft 8s 6s 16 18 mph 1012.9mb 49f 49f
2:50pm 8ft 9s 6s 11 16 mph 1013mb 49f 49f
1:50pm 7ft 9s 6s 16 18 mph 1012.4mb 49f 49f
12:50pm 7ft 9s 6s 18 22 mph 1011.9mb 49f 48f
11:50am 7.5ft 7s 6s 16 18 mph 1011.9mb 49f 48f
10:50am 7ft 8s 6s 16 20 mph 1011.4mb 49f 48f
9:50am 8.5ft 8s 6s 22 27 mph 1011mb 49f 49f
8:50am 8.5ft 9s 6s 20 25 mph 1010.8mb 49f 49f
7:50am 8.5ft 7s 6s 22 27 mph 1010.3mb 49f 49f
6:50am 9ft 8s 6s 20 25 mph 1010mb 48f 48f
5:50am 8ft 8s 6s 20 27 mph 1009.4mb 47f 48f
4:50am 8ft 8s 6s 20 25 mph 1008.7mb 46f 48f
3:50am 8ft 8s 6s 18 22 mph 1008.3mb 46f 48f
2:50am 7.5ft 7s 6s 20 22 mph 1007.9mb 45f 47f
1:50am 6.5ft 8s 6s 13 16 mph 1007.8mb 45f 47f
12:50am 6.5ft 9s 6s 18 20 mph 1007.4mb 45f 47f
Thu 09/18 11:50pm 6.5ft 9s 6s 18 20 mph 1007.6mb 45f 47f
10:50pm 6ft 8s 6s 18 22 mph 1007.5mb 46f 48f
9:50pm 6ft 9s 5s 20 27 mph 1007.4mb 47f 48f
8:50pm 6ft 8s 5s 22 27 mph 1007.4mb 47f 48f
7:50pm 6ft 8s 5s 18 22 mph 1007.4mb 47f 48f
6:50pm 7ft 9s 6s 16 22 mph 1007.5mb 47f 48f
5:50pm 7ft 9s 6s 16 20 mph 1007.6mb 48f 48f
4:50pm 7.5ft 9s 6s 18 22 mph 1007.2mb 48f 48f
3:50pm 7ft 6s 6s 16 20 mph 1007.1mb 48f 48f
2:50pm 6ft 6s 5s 16 20 mph 1007mb 48f 47f
1:50pm 6ft 6s 6s 18 20 mph 1006.7mb 48f 47f
12:50pm 5.5ft 10s 6s 16 20 mph 1006.6mb 47f 48f
11:50am 5ft 11s 6s 13 18 mph 1006.9mb 46f 48f
10:50am 5ft 9s 5s 18 20 mph 1006.6mb 46f 48f
9:50am 5ft 11s 5s 18 20 mph 1006.7mb 46f 48f
8:50am 5ft 11s 5s 20 25 mph 1006.5mb 48f 49f
7:50am 5ft 11s 5s 18 22 mph 1005.8mb 49f 49f
6:50am 5.5ft 10s 6s 18 22 mph 1005.3mb 49f 49f
5:50am 6ft 11s 5s 18 22 mph 1004.7mb 49f 50f
4:50am 6ft 11s 6s 18 22 mph 1004.2mb 49f 50f
3:50am 5.5ft 10s 5s 16 18 mph 1003.9mb 49f 50f
2:50am 6ft 9s 6s 16 18 mph 1003.6mb 49f 49f
1:50am 6ft 11s 6s 18 20 mph 1003.4mb 49f 50f
12:50am 5ft 12s 5s 18 20 mph 1003.2mb 49f 50f
Wed 09/17 11:50pm 5ft 10s 5s 18 22 mph 1003.3mb 50f 50f
10:50pm 4.5ft 5s 5s 18 20 mph 1003.4mb 50f 50f
9:50pm 4ft 8s 5s 18 20 mph 1003.4mb 49f 50f
8:50pm 3.5ft 5s 4s 16 18 mph 1003.2mb 49f 50f
7:50pm 4ft 4s 5s 18 20 mph 1002.9mb 49f 49f
6:50pm 4ft 9s 5s 18 22 mph 1002.5mb 50f 49f
5:50pm 4ft 8s 5s 16 20 mph 1002.2mb 50f 49f
4:50pm 4ft 8s 5s 16 20 mph 1001.7mb 50f 49f
3:50pm 3.5ft 5s 5s 16 20 mph 1001.2mb 50f 49f
2:50pm 3.5ft 8s 5s 13 16 mph 1000.9mb 50f 49f
1:50pm 3ft 8s 5s 13 18 mph 1000.8mb 49f 49f